メインページ
METAR-TAF:

METAR-TAF

空港 :

コルカタ, インド

ネータージー・スバース・チャンドラ・ボース国際空港

緯度: 22-39N, 経度: 088-27E, 海抜: 4m

現時点の気象観測

当レポートは30分前の03:30(UTC)に作成
南西の風 7kt
気温 32°C
湿度 67%
気圧 1009 hPa
視程: 3500m
高度2000ftの雲はほとんどない
高度10000ftの雲は散在している
煙霧

METAR: VECC 230330Z 23007KT 3500 HZ FEW020 SCT100 32/25 Q1009 NOSIG

時間: 09:30 (04:00 UTC)

予報

当レポートは5時間0分前の23:00(UTC)に作成
予報は23日の 00時(UTC)から 24日の 06時(UTC)まで有効
南東の風 5kt
視程: 2800m
高度2000ftの雲は散在している
高度10000ftの雲は散在している
小雨, 煙霧
23日の 02時(UTC)から 23日の 04時(UTC)まで徐々に
の風 7kt
視程: 3500m
高度2000ftの雲は散在している
高度10000ftの雲は散在している
煙霧
23日の 06時(UTC)から 23日の 10時(UTC)まで一時的に
視程: 1500m
高度1500ftの雲は散在している
高度2500ftの雲はほとんどない, 積乱雲.
高度9000ftの曇り
激しい雷雨, 雨
23日の 20時(UTC)から 23日の 22時(UTC)まで徐々に
視程: 2800m
高度1800ftの雲は散在している
高度9000ftの千切れ雲あり
小雨, 煙霧
24日の 02時(UTC)から 24日の 04時(UTC)まで徐々に
視程: 3500m
高度2000ftの雲は散在している
高度10000ftの雲は散在している
煙霧

TAF: VECC 222300Z 2300/2406 13005KT 2800 -RA HZ SCT020 SCT100 BECMG 2302/2304 19007KT 3500 HZ SCT020 SCT100 TEMPO 2306/2310 1500 TSRA SCT015 FEW025CB OVC090 BECMG 2320/2322 2800 -RA HZ SCT018 BKN090 BECMG 2402/2404 3500 HZ SCT020 SCT100

4,000以上の空港の気象観測と天気予報(METAR報とTAF報)

利用可能な観測所は地図上に黄色い丸と赤い丸で示す。

丸の上にカーソルを重ねると観測所名を参照できる。

次にクリックすると気象観測と天気予報を参照できる。

マップの切り替え:黒色「×」印の緑ボタンをクリックして拡大、「-」印の緑ボタンをクリックして縮小、緑色の三角印をクリックして隣りの地図に切り替え


METAR-TAF: